createdAt,value
2017-12-20T00:00:18.149Z,20.35
2017-12-20T00:01:18.437Z,20.34
2017-12-20T00:02:18.194Z,20.34
2017-12-20T00:03:18.252Z,20.37
2017-12-20T00:04:18.376Z,20.41
2017-12-20T00:05:18.363Z,20.31
2017-12-20T00:06:18.333Z,20.31
2017-12-20T00:07:18.366Z,20.34
2017-12-20T00:08:18.707Z,20.37
2017-12-20T00:09:18.427Z,20.33
2017-12-20T00:10:18.471Z,20.38
2017-12-20T00:11:18.473Z,20.35
2017-12-20T00:12:18.508Z,20.40
2017-12-20T00:13:18.554Z,20.41
2017-12-20T00:14:31.777Z,20.41
2017-12-20T00:15:18.600Z,20.38
2017-12-20T00:16:18.680Z,20.40
2017-12-20T00:17:18.677Z,20.33
2017-12-20T00:18:18.704Z,20.42
2017-12-20T00:19:18.737Z,20.35
2017-12-20T00:20:18.766Z,20.41
2017-12-20T00:21:19.028Z,20.40
2017-12-20T00:22:18.837Z,20.33
2017-12-20T00:23:18.849Z,20.40
2017-12-20T00:24:19.087Z,20.40
2017-12-20T00:26:18.941Z,20.40
2017-12-20T00:27:19.146Z,20.41
2017-12-20T00:28:19.432Z,20.42
2017-12-20T00:29:19.720Z,20.48
2017-12-20T00:31:19.207Z,20.46
2017-12-20T00:32:19.201Z,20.41
2017-12-20T00:33:19.559Z,20.44
2017-12-20T00:34:19.587Z,20.46
2017-12-20T00:35:19.527Z,20.44
2017-12-20T00:36:19.242Z,20.42
2017-12-20T00:37:19.298Z,20.46
2017-12-20T00:38:19.305Z,20.48
2017-12-20T00:39:19.343Z,20.38
2017-12-20T00:40:19.369Z,20.44
2017-12-20T00:41:19.752Z,20.48
2017-12-20T00:42:19.431Z,20.44
2017-12-20T00:43:19.452Z,20.46
2017-12-20T00:44:20.293Z,20.46
2017-12-20T00:45:19.531Z,20.46
2017-12-20T00:46:19.564Z,20.48
2017-12-20T00:47:19.879Z,20.48
2017-12-20T00:48:19.627Z,20.46
2017-12-20T00:49:19.656Z,20.50
2017-12-20T00:50:19.666Z,20.48
2017-12-20T00:51:19.696Z,20.38
2017-12-20T00:52:19.738Z,20.46
2017-12-20T00:53:20.030Z,20.46
2017-12-20T00:54:19.842Z,20.44
2017-12-20T00:55:19.843Z,20.44
2017-12-20T00:56:19.851Z,20.46
2017-12-20T00:57:19.917Z,20.41
2017-12-20T00:58:19.931Z,20.46
2017-12-20T00:59:20.206Z,20.40
2017-12-20T01:00:20.046Z,20.40
2017-12-20T01:01:20.006Z,20.44
2017-12-20T01:02:20.047Z,20.42
2017-12-20T01:03:20.086Z,20.40
2017-12-20T01:04:20.115Z,20.37
2017-12-20T01:05:20.378Z,20.40
2017-12-20T01:06:20.171Z,20.42
2017-12-20T01:07:20.189Z,20.38
2017-12-20T01:08:20.235Z,20.38
2017-12-20T01:09:20.252Z,20.40
2017-12-20T01:10:20.357Z,20.42
2017-12-20T01:11:20.611Z,20.41
2017-12-20T01:12:20.364Z,20.35
2017-12-20T01:13:20.385Z,20.34
2017-12-20T01:14:20.412Z,20.40
2017-12-20T01:15:20.451Z,20.40
2017-12-20T01:16:20.575Z,20.44
2017-12-20T01:17:20.764Z,20.38
2017-12-20T01:18:20.528Z,20.37
2017-12-20T01:19:20.560Z,20.38
2017-12-20T01:20:20.593Z,20.37
2017-12-20T01:21:20.628Z,20.40
2017-12-20T01:22:20.656Z,20.38
2017-12-20T01:23:21.085Z,20.40
2017-12-20T01:24:20.711Z,20.38
2017-12-20T01:25:20.762Z,20.37
2017-12-20T01:26:20.804Z,20.35
2017-12-20T01:27:20.825Z,20.38
2017-12-20T01:28:20.852Z,20.38
2017-12-20T01:29:21.136Z,20.35
2017-12-20T01:30:20.955Z,20.38
2017-12-20T01:31:20.947Z,20.38
2017-12-20T01:32:20.975Z,20.40
2017-12-20T01:33:21.009Z,20.40
2017-12-20T01:34:21.047Z,20.31
2017-12-20T01:35:21.332Z,20.40
2017-12-20T01:36:21.133Z,20.33
2017-12-20T01:37:21.140Z,20.35
2017-12-20T01:38:21.160Z,20.38
2017-12-20T01:39:21.199Z,20.41
2017-12-20T01:40:21.224Z,20.46
2017-12-20T01:41:21.535Z,20.31
2017-12-20T01:42:21.265Z,20.30
2017-12-20T01:43:21.523Z,20.31
2017-12-20T01:44:21.342Z,20.38
2017-12-20T01:45:21.375Z,20.37
2017-12-20T01:46:21.390Z,20.35
2017-12-20T01:48:21.788Z,20.35
2017-12-20T01:49:21.496Z,20.40
2017-12-20T01:50:21.537Z,20.38
2017-12-20T01:51:21.558Z,20.33
2017-12-20T01:52:21.622Z,20.31
2017-12-20T01:53:21.604Z,20.34
2017-12-20T01:54:21.652Z,20.35
2017-12-20T01:55:21.913Z,20.37
2017-12-20T01:56:21.704Z,20.35
2017-12-20T01:57:21.724Z,20.34
2017-12-20T01:58:21.777Z,20.31
2017-12-20T01:59:21.805Z,20.34
2017-12-20T02:00:22.479Z,20.30
2017-12-20T02:01:21.868Z,20.34
2017-12-20T02:02:22.131Z,20.35
2017-12-20T02:03:21.913Z,20.38
2017-12-20T02:04:21.959Z,20.35
2017-12-20T02:05:21.991Z,20.37
2017-12-20T02:06:22.119Z,20.35
2017-12-20T02:08:22.382Z,20.37
2017-12-20T02:09:22.113Z,20.33
2017-12-20T02:10:22.144Z,20.33
2017-12-20T02:11:22.176Z,20.35
2017-12-20T02:12:22.220Z,20.34
2017-12-20T02:13:22.581Z,20.34
2017-12-20T02:14:22.252Z,20.26
2017-12-20T02:15:22.528Z,20.31
2017-12-20T02:17:22.363Z,20.34
2017-12-20T02:18:22.475Z,20.27
2017-12-20T02:19:22.407Z,20.31
2017-12-20T02:20:22.453Z,20.31
2017-12-20T02:21:22.508Z,20.35
2017-12-20T02:22:22.743Z,20.30
2017-12-20T02:23:22.940Z,20.31
2017-12-20T02:24:22.572Z,20.33
2017-12-20T02:25:22.602Z,20.33
2017-12-20T02:26:22.677Z,20.31
2017-12-20T02:27:22.663Z,20.27
2017-12-20T02:28:22.695Z,20.34
2017-12-20T02:29:23.010Z,20.30
2017-12-20T02:30:22.739Z,20.30
2017-12-20T02:31:22.769Z,20.33
2017-12-20T02:32:22.819Z,20.30
2017-12-20T02:33:22.831Z,20.30
2017-12-20T02:34:22.882Z,20.30
2017-12-20T02:35:22.909Z,20.34
2017-12-20T02:36:23.172Z,20.34
2017-12-20T02:37:23.001Z,20.37
2017-12-20T02:38:23.023Z,20.27
2017-12-20T02:39:23.034Z,20.27
2017-12-20T02:40:23.046Z,20.33
2017-12-20T02:41:23.077Z,20.33
2017-12-20T02:42:23.123Z,20.30
2017-12-20T02:43:23.405Z,20.33
2017-12-20T02:44:23.169Z,20.33
2017-12-20T02:45:23.218Z,20.31
2017-12-20T02:46:23.247Z,20.30
2017-12-20T02:47:23.259Z,20.37
2017-12-20T02:48:23.307Z,20.38
2017-12-20T02:49:23.326Z,20.26
2017-12-20T02:50:23.692Z,20.34
2017-12-20T02:51:23.383Z,20.27
2017-12-20T02:52:23.422Z,20.31
2017-12-20T02:53:23.469Z,20.33
2017-12-20T02:54:23.481Z,20.31
2017-12-20T02:55:23.532Z,20.37
2017-12-20T02:56:23.602Z,20.30
2017-12-20T02:57:23.869Z,20.37
2017-12-20T02:58:23.596Z,20.33
2017-12-20T02:59:23.628Z,20.31
2017-12-20T03:00:23.736Z,20.37
2017-12-20T03:01:23.736Z,20.26
2017-12-20T03:02:23.738Z,20.37
2017-12-20T03:03:23.789Z,20.33
2017-12-20T03:04:24.086Z,20.33
2017-12-20T03:05:23.831Z,20.27
2017-12-20T03:06:23.928Z,20.34
2017-12-20T03:07:23.873Z,20.27
2017-12-20T03:08:23.921Z,20.30
2017-12-20T03:09:23.936Z,20.33
2017-12-20T03:10:24.235Z,20.31
2017-12-20T03:11:24.012Z,20.30
2017-12-20T03:12:24.032Z,20.37
2017-12-20T03:13:24.063Z,20.30
2017-12-20T03:14:24.103Z,20.31
2017-12-20T03:15:24.123Z,20.33
2017-12-20T03:17:24.214Z,20.35
2017-12-20T03:18:24.231Z,20.31
2017-12-20T03:19:24.242Z,20.31
2017-12-20T03:20:24.292Z,20.37
2017-12-20T03:21:24.306Z,20.31
2017-12-20T03:22:24.583Z,20.30
2017-12-20T03:23:24.384Z,20.27
2017-12-20T03:24:24.395Z,20.30
2017-12-20T03:25:24.446Z,20.31
2017-12-20T03:26:24.462Z,20.35
2017-12-20T03:27:24.504Z,20.27
2017-12-20T03:28:24.836Z,20.31
2017-12-20T03:29:24.566Z,20.37
2017-12-20T03:30:24.585Z,20.33
2017-12-20T03:31:24.629Z,20.35
2017-12-20T03:32:24.692Z,20.31
2017-12-20T03:33:24.671Z,20.37
2017-12-20T03:34:24.956Z,20.26
2017-12-20T03:35:24.749Z,20.35
2017-12-20T03:36:24.763Z,20.31
2017-12-20T03:37:24.816Z,20.27
2017-12-20T03:38:24.826Z,20.26
2017-12-20T03:39:24.874Z,20.34
2017-12-20T03:40:25.214Z,20.30
2017-12-20T03:41:24.937Z,20.33
2017-12-20T03:42:25.000Z,20.31
2017-12-20T03:43:24.997Z,20.31
2017-12-20T03:44:25.010Z,20.33
2017-12-20T03:45:25.058Z,20.31
2017-12-20T03:46:25.353Z,20.31
2017-12-20T03:47:25.173Z,20.33
2017-12-20T03:48:25.135Z,20.33
2017-12-20T03:49:25.167Z,20.27
2017-12-20T03:50:25.192Z,20.31
2017-12-20T03:51:25.224Z,20.33
2017-12-20T03:52:25.561Z,20.27
2017-12-20T03:53:25.285Z,20.34
2017-12-20T03:54:25.344Z,20.30
2017-12-20T03:55:25.355Z,20.33
2017-12-20T03:56:25.394Z,20.33
2017-12-20T03:57:25.430Z,20.35
2017-12-20T03:58:25.738Z,20.26
2017-12-20T03:59:25.519Z,20.31
2017-12-20T04:00:25.531Z,20.35
2017-12-20T04:01:25.560Z,20.33
2017-12-20T04:02:25.653Z,20.31
2017-12-20T04:03:25.612Z,20.30
2017-12-20T04:04:25.875Z,20.31
2017-12-20T04:05:25.683Z,20.31
2017-12-20T04:06:25.700Z,20.33
2017-12-20T04:07:25.713Z,20.27
2017-12-20T04:08:25.808Z,20.30
2017-12-20T04:09:25.814Z,20.33
2017-12-20T04:10:26.127Z,20.33
2017-12-20T04:11:25.955Z,20.30
2017-12-20T04:12:25.893Z,20.33
2017-12-20T04:13:25.909Z,20.33
2017-12-20T04:14:25.952Z,20.30
2017-12-20T04:15:25.959Z,20.34
2017-12-20T04:16:26.292Z,20.30
2017-12-20T04:17:26.050Z,20.33
2017-12-20T04:18:26.055Z,20.27
2017-12-20T04:19:26.082Z,20.33
2017-12-20T04:20:26.130Z,20.27
2017-12-20T04:21:26.164Z,20.33
2017-12-20T04:22:26.481Z,20.33
2017-12-20T04:23:26.212Z,20.33
2017-12-20T04:24:26.260Z,20.34
2017-12-20T04:25:26.286Z,20.23
2017-12-20T04:26:26.299Z,20.37
2017-12-20T04:27:26.329Z,20.33
2017-12-20T04:28:26.382Z,20.37
2017-12-20T04:29:26.654Z,20.35
2017-12-20T04:30:26.454Z,20.31
2017-12-20T04:31:26.451Z,20.27
2017-12-20T04:32:26.504Z,20.31
2017-12-20T04:33:26.557Z,20.30
2017-12-20T04:34:26.573Z,20.31
2017-12-20T04:35:26.600Z,20.31
2017-12-20T04:36:26.923Z,20.27
2017-12-20T04:37:26.659Z,20.26
2017-12-20T04:38:26.692Z,20.33
2017-12-20T04:39:26.720Z,20.33
2017-12-20T04:40:26.751Z,20.31
2017-12-20T04:41:26.851Z,20.35
2017-12-20T04:42:26.810Z,20.31
2017-12-20T04:43:27.088Z,20.31
2017-12-20T04:44:26.868Z,20.34
2017-12-20T04:45:27.709Z,20.30
2017-12-20T04:46:26.928Z,20.31
2017-12-20T04:47:26.947Z,20.27
2017-12-20T04:48:26.989Z,20.26
2017-12-20T04:49:27.024Z,20.35
2017-12-20T04:50:27.289Z,20.31
2017-12-20T04:51:27.083Z,20.34
2017-12-20T04:52:27.117Z,20.33
2017-12-20T04:53:27.149Z,20.34
2017-12-20T04:54:27.159Z,20.33
2017-12-20T04:55:27.190Z,20.31
2017-12-20T04:56:27.219Z,20.30
2017-12-20T04:57:27.504Z,20.35
2017-12-20T04:58:27.306Z,20.26
2017-12-20T04:59:27.335Z,20.34
2017-12-20T05:00:27.356Z,20.31
2017-12-20T05:01:27.395Z,20.31
2017-12-20T05:02:27.430Z,20.30
2017-12-20T05:03:27.459Z,20.27
2017-12-20T05:04:27.736Z,20.31
2017-12-20T05:05:27.516Z,20.33
2017-12-20T05:06:27.524Z,20.30
2017-12-20T05:07:27.575Z,20.38
2017-12-20T05:08:27.593Z,20.33
2017-12-20T05:09:27.748Z,20.33
2017-12-20T05:10:27.665Z,20.30
2017-12-20T05:11:28.000Z,20.26
2017-12-20T05:12:27.731Z,20.33
2017-12-20T05:13:27.743Z,20.33
2017-12-20T05:14:27.792Z,20.31
2017-12-20T05:15:27.805Z,20.27
2017-12-20T05:16:27.850Z,20.35
2017-12-20T05:17:27.887Z,20.30
2017-12-20T05:18:28.145Z,20.27
2017-12-20T05:19:27.936Z,20.33
2017-12-20T05:20:28.116Z,20.26
2017-12-20T05:21:28.077Z,20.30
2017-12-20T05:22:28.036Z,20.31
2017-12-20T05:23:28.066Z,20.35
2017-12-20T05:24:28.078Z,20.30
2017-12-20T05:25:28.410Z,20.33
2017-12-20T05:26:28.147Z,20.33
2017-12-20T05:27:28.188Z,20.34
2017-12-20T05:28:28.226Z,20.31
2017-12-20T05:29:28.254Z,20.33
2017-12-20T05:30:28.267Z,20.31
2017-12-20T05:31:28.306Z,20.33
2017-12-20T05:32:28.615Z,20.26
2017-12-20T05:33:28.363Z,20.27
2017-12-20T05:34:28.391Z,20.27
2017-12-20T05:35:28.666Z,20.30
2017-12-20T05:36:28.447Z,20.34
2017-12-20T05:37:28.543Z,20.35
2017-12-20T05:38:28.526Z,20.34
2017-12-20T05:39:28.860Z,20.33
2017-12-20T05:40:28.569Z,20.31
2017-12-20T05:41:28.600Z,20.30
2017-12-20T05:42:28.664Z,20.30
2017-12-20T05:43:28.671Z,20.34
2017-12-20T05:44:28.693Z,20.30
2017-12-20T05:45:29.027Z,20.37
2017-12-20T05:46:28.773Z,20.38
2017-12-20T05:47:28.815Z,20.34
2017-12-20T05:48:28.837Z,20.34
2017-12-20T05:49:28.869Z,20.34
2017-12-20T05:50:28.894Z,20.35
2017-12-20T05:51:29.232Z,20.34
2017-12-20T05:52:28.959Z,20.34
2017-12-20T05:53:28.996Z,20.34
2017-12-20T05:54:29.019Z,20.33
2017-12-20T05:55:29.036Z,20.27
2017-12-20T05:56:29.064Z,20.31
2017-12-20T05:57:29.414Z,20.30
2017-12-20T05:58:29.131Z,20.33
2017-12-20T05:59:29.237Z,20.30
2017-12-20T06:00:29.205Z,20.31
2017-12-20T06:01:29.220Z,20.38
2017-12-20T06:02:31.199Z,20.30
2017-12-20T06:03:29.579Z,20.34
2017-12-20T06:04:29.321Z,20.33
2017-12-20T06:05:29.379Z,20.38
2017-12-20T06:06:29.435Z,20.30
2017-12-20T06:07:29.815Z,20.30
2017-12-20T06:08:29.454Z,20.37
2017-12-20T06:09:29.803Z,20.38
2017-12-20T06:10:29.504Z,20.38
2017-12-20T06:11:29.611Z,20.27
2017-12-20T06:12:29.685Z,20.37
2017-12-20T06:13:29.593Z,20.38
2017-12-20T06:14:29.656Z,20.34
2017-12-20T06:15:29.970Z,20.35
2017-12-20T06:16:29.779Z,20.34
2017-12-20T06:17:29.822Z,20.35
2017-12-20T06:18:29.741Z,20.30
2017-12-20T06:19:29.907Z,20.33
2017-12-20T06:20:29.853Z,20.31
2017-12-20T06:21:30.136Z,20.30
2017-12-20T06:22:29.893Z,20.35
2017-12-20T06:23:29.996Z,20.30
2017-12-20T06:24:29.958Z,20.35
2017-12-20T06:25:29.963Z,20.38
2017-12-20T06:26:29.985Z,20.37
2017-12-20T06:28:31.203Z,20.30
2017-12-20T06:29:30.096Z,20.34
2017-12-20T06:33:30.214Z,20.34
2017-12-20T06:34:30.296Z,20.34
2017-12-20T06:35:30.733Z,20.35
2017-12-20T06:37:30.332Z,20.38
2017-12-20T06:38:30.378Z,20.31
2017-12-20T06:39:30.420Z,20.31
2017-12-20T06:40:30.445Z,20.34
2017-12-20T06:41:30.713Z,20.31
2017-12-20T06:42:30.518Z,20.33
2017-12-20T06:47:30.961Z,20.33
2017-12-20T07:00:31.030Z,20.33
2017-12-20T07:01:31.082Z,20.33
2017-12-20T07:02:31.244Z,20.31
2017-12-20T07:03:31.248Z,20.31
2017-12-20T07:04:31.171Z,20.30
2017-12-20T07:10:31.446Z,20.30
2017-12-20T07:17:31.969Z,20.37
2017-12-20T07:18:31.703Z,20.30
2017-12-20T07:19:31.635Z,20.35
2017-12-20T07:20:31.685Z,20.35
2017-12-20T07:21:31.724Z,20.38
2017-12-20T07:23:31.757Z,20.37
2017-12-20T07:24:31.957Z,20.30
2017-12-20T07:25:31.855Z,20.34
2017-12-20T07:26:31.966Z,20.41
2017-12-20T07:27:31.865Z,20.35
2017-12-20T07:28:32.216Z,20.38
2017-12-20T07:29:32.074Z,20.46
2017-12-20T07:30:31.967Z,20.38
2017-12-20T07:31:32.050Z,20.30
2017-12-20T07:32:32.084Z,20.41
2017-12-20T07:34:32.348Z,20.34
2017-12-20T07:35:32.142Z,20.34
2017-12-20T07:36:32.143Z,20.38
2017-12-20T07:37:32.169Z,20.30
2017-12-20T07:39:32.247Z,20.35
2017-12-20T07:40:32.317Z,20.31
2017-12-20T07:41:32.769Z,20.41
2017-12-20T07:42:32.325Z,20.37
2017-12-20T07:43:32.351Z,20.35
2017-12-20T07:44:32.415Z,20.33
2017-12-20T07:45:33.561Z,20.26
2017-12-20T07:46:32.478Z,20.31
2017-12-20T07:47:32.477Z,20.34
2017-12-20T07:48:32.777Z,20.27
2017-12-20T07:49:32.554Z,20.34
2017-12-20T07:50:32.572Z,20.31
2017-12-20T07:51:32.606Z,20.35
2017-12-20T07:52:32.650Z,20.30
2017-12-20T07:53:33.026Z,20.30
2017-12-20T07:54:32.733Z,20.30
2017-12-20T07:55:32.997Z,20.34
2017-12-20T07:56:32.804Z,20.34
2017-12-20T07:57:32.802Z,20.34
2017-12-20T07:58:33.811Z,20.33
2017-12-20T07:59:32.863Z,20.40
2017-12-20T08:00:32.926Z,20.34
2017-12-20T08:01:33.005Z,20.34
2017-12-20T08:02:33.302Z,20.31
2017-12-20T08:03:32.999Z,20.30
2017-12-20T08:04:33.037Z,20.35
2017-12-20T08:05:33.074Z,20.31
2017-12-20T08:06:33.082Z,20.31
2017-12-20T08:07:33.112Z,20.35
2017-12-20T08:08:33.121Z,20.33
2017-12-20T08:09:33.454Z,20.37
2017-12-20T08:10:33.186Z,20.31
2017-12-20T08:11:33.252Z,20.27
2017-12-20T08:12:33.246Z,20.35
2017-12-20T08:13:33.276Z,20.35
2017-12-20T08:14:33.307Z,20.37
2017-12-20T08:15:33.376Z,20.35
2017-12-20T08:16:33.689Z,20.37
2017-12-20T08:17:33.597Z,20.31
2017-12-20T08:18:33.432Z,20.34
2017-12-20T08:19:34.272Z,20.27
2017-12-20T08:21:33.542Z,20.33
2017-12-20T08:22:33.655Z,20.35
2017-12-20T08:23:34.268Z,20.35
2017-12-20T08:24:33.641Z,20.35
2017-12-20T08:25:33.655Z,20.35
2017-12-20T08:26:33.676Z,20.26
2017-12-20T08:27:33.724Z,20.35
2017-12-20T08:28:33.768Z,20.35
2017-12-20T08:29:34.112Z,20.34
2017-12-20T08:30:33.819Z,20.31
2017-12-20T08:31:33.832Z,20.38
2017-12-20T08:32:33.928Z,20.34
2017-12-20T08:33:33.908Z,20.31
2017-12-20T08:34:33.921Z,20.34
2017-12-20T08:35:34.277Z,20.31
2017-12-20T08:36:33.992Z,20.31
2017-12-20T08:37:34.034Z,20.35
2017-12-20T08:38:34.061Z,20.35
2017-12-20T08:39:34.198Z,20.30
2017-12-20T08:40:34.320Z,20.34
2017-12-20T08:41:34.442Z,20.34
2017-12-20T08:42:34.254Z,20.40
2017-12-20T08:43:34.233Z,20.27
2017-12-20T08:44:34.307Z,20.38
2017-12-20T08:45:34.264Z,20.35
2017-12-20T08:46:34.309Z,20.30
2017-12-20T08:47:34.628Z,20.35
2017-12-20T08:48:34.362Z,20.34
2017-12-20T08:49:34.402Z,20.35
2017-12-20T08:50:34.667Z,20.31
2017-12-20T08:51:34.445Z,20.35
2017-12-20T08:52:34.505Z,20.38
2017-12-20T08:53:34.814Z,20.35
2017-12-20T08:54:34.665Z,20.35
2017-12-20T08:55:34.574Z,20.37
2017-12-20T08:56:34.599Z,20.34
2017-12-20T08:57:34.673Z,20.35
2017-12-20T08:58:34.678Z,20.34
2017-12-20T08:59:38.688Z,20.37
2017-12-20T09:02:34.811Z,20.34
2017-12-20T09:03:34.870Z,20.25
2017-12-20T09:04:34.848Z,20.38
2017-12-20T09:05:35.202Z,20.31
2017-12-20T09:06:34.913Z,20.34
2017-12-20T09:07:34.969Z,20.31
2017-12-20T09:08:35.345Z,20.38
2017-12-20T09:09:35.011Z,20.34
2017-12-20T09:10:35.047Z,20.31
2017-12-20T09:11:35.315Z,20.38
2017-12-20T09:12:35.102Z,20.41
2017-12-20T09:13:35.128Z,20.38
2017-12-20T09:14:35.440Z,20.37
2017-12-20T09:15:35.232Z,20.42
2017-12-20T09:16:35.260Z,20.41
2017-12-20T09:17:35.568Z,20.42
2017-12-20T09:18:35.288Z,20.38
2017-12-20T09:19:35.316Z,20.41
2017-12-20T09:20:35.419Z,20.42
2017-12-20T09:21:35.375Z,20.38
2017-12-20T09:22:35.417Z,20.37
2017-12-20T09:23:35.779Z,20.46
2017-12-20T09:24:35.579Z,20.38
2017-12-20T09:25:35.511Z,20.41
2017-12-20T09:26:35.574Z,20.40
2017-12-20T09:27:35.556Z,20.50
2017-12-20T09:28:35.603Z,20.42
2017-12-20T09:29:35.886Z,20.42
2017-12-20T09:30:35.670Z,20.48
2017-12-20T09:31:35.763Z,20.46
2017-12-20T09:32:35.747Z,20.46
2017-12-20T09:33:35.798Z,20.46
2017-12-20T09:34:35.808Z,20.46
2017-12-20T09:35:35.885Z,20.42
2017-12-20T09:36:36.140Z,20.54
2017-12-20T09:37:35.864Z,20.50
2017-12-20T09:38:36.190Z,20.48
2017-12-20T09:39:35.928Z,20.46
2017-12-20T09:40:36.078Z,20.42
2017-12-20T09:41:36.060Z,20.44
2017-12-20T09:42:36.054Z,20.48
2017-12-20T09:43:36.373Z,20.44
2017-12-20T09:44:36.100Z,20.46
2017-12-20T09:45:36.119Z,20.51
2017-12-20T09:46:36.150Z,20.42
2017-12-20T09:47:36.259Z,20.42
2017-12-20T09:48:36.208Z,20.46
2017-12-20T09:49:36.251Z,20.44
2017-12-20T09:50:36.570Z,20.46
2017-12-20T09:51:36.321Z,20.48
2017-12-20T09:52:36.433Z,20.44
2017-12-20T09:53:36.358Z,20.48
2017-12-20T09:54:36.405Z,20.44
2017-12-20T09:55:36.440Z,20.46
2017-12-20T09:56:36.597Z,20.53
2017-12-20T09:57:36.833Z,20.46
2017-12-20T09:59:36.543Z,20.50
2017-12-20T10:00:36.592Z,20.50
2017-12-20T10:01:36.616Z,20.48
2017-12-20T10:02:36.660Z,20.50
2017-12-20T10:03:36.788Z,20.50
2017-12-20T10:04:37.227Z,20.48
2017-12-20T10:05:36.822Z,20.48
2017-12-20T10:06:36.837Z,20.42
2017-12-20T10:07:36.836Z,20.46
2017-12-20T10:08:36.888Z,20.54
2017-12-20T10:09:36.859Z,20.44
2017-12-20T10:10:36.914Z,20.48
2017-12-20T10:11:37.272Z,20.42
2017-12-20T10:12:36.976Z,20.50
2017-12-20T10:13:36.980Z,20.46
2017-12-20T10:14:37.055Z,20.48
2017-12-20T10:15:37.056Z,20.46
2017-12-20T10:16:37.088Z,20.42
2017-12-20T10:17:37.121Z,20.44
2017-12-20T10:18:37.431Z,20.41
2017-12-20T10:19:37.179Z,20.46
2017-12-20T10:20:37.252Z,20.50
2017-12-20T10:21:37.289Z,20.42
2017-12-20T10:22:37.273Z,20.42
2017-12-20T10:23:37.287Z,20.46
2017-12-20T10:24:37.335Z,20.46
2017-12-20T10:25:37.665Z,20.40
2017-12-20T10:26:37.395Z,20.48
2017-12-20T10:27:37.448Z,20.51
2017-12-20T10:28:37.460Z,20.50
2017-12-20T10:29:37.489Z,20.48
2017-12-20T10:30:37.537Z,20.48
2017-12-20T10:31:37.562Z,20.50
2017-12-20T10:32:37.879Z,20.50
2017-12-20T10:33:37.601Z,20.42
2017-12-20T10:34:37.648Z,20.42
2017-12-20T10:35:37.662Z,20.46
2017-12-20T10:36:37.743Z,20.48
2017-12-20T10:37:37.831Z,20.51
2017-12-20T10:38:37.942Z,20.41
2017-12-20T10:39:38.100Z,20.44
2017-12-20T10:40:37.828Z,20.53
2017-12-20T10:41:37.863Z,20.42
2017-12-20T10:42:37.908Z,20.42
2017-12-20T10:43:37.903Z,20.51
2017-12-20T10:44:37.939Z,20.44
2017-12-20T10:45:38.030Z,20.54
2017-12-20T10:46:38.335Z,20.53
2017-12-20T10:47:38.028Z,20.56
2017-12-20T10:48:38.107Z,20.60
2017-12-20T10:49:38.214Z,20.60
2017-12-20T10:50:38.150Z,20.60
2017-12-20T10:51:38.194Z,20.60
2017-12-20T10:52:38.492Z,20.53
2017-12-20T10:53:38.265Z,20.58
2017-12-20T10:54:38.247Z,20.57
2017-12-20T10:55:38.276Z,20.57
2017-12-20T10:56:38.316Z,20.60
2017-12-20T10:57:38.368Z,20.57
2017-12-20T10:58:38.637Z,20.58
2017-12-20T10:59:38.624Z,20.56
2017-12-20T11:00:38.447Z,20.60
2017-12-20T11:01:38.500Z,20.60
2017-12-20T11:02:38.518Z,20.58
2017-12-20T11:03:38.529Z,20.60
2017-12-20T11:04:38.831Z,20.60
2017-12-20T11:05:38.648Z,20.64
2017-12-20T11:06:38.621Z,20.60
2017-12-20T11:07:38.651Z,20.66
2017-12-20T11:08:38.684Z,20.61
2017-12-20T11:09:38.709Z,20.61
2017-12-20T11:10:39.113Z,20.60
2017-12-20T11:11:38.791Z,20.64
2017-12-20T11:12:38.823Z,20.64
2017-12-20T11:13:38.838Z,20.63
2017-12-20T11:14:38.946Z,20.61
2017-12-20T11:15:39.143Z,20.64
2017-12-20T11:16:39.245Z,20.64
2017-12-20T11:17:38.969Z,20.64
2017-12-20T11:18:39.030Z,20.57
2017-12-20T11:19:39.047Z,20.63
2017-12-20T11:20:39.074Z,20.61
2017-12-20T11:21:39.083Z,20.57
2017-12-20T11:22:39.367Z,20.66
2017-12-20T11:23:39.150Z,20.73
2017-12-20T11:24:39.437Z,20.61
2017-12-20T11:25:39.232Z,20.71
2017-12-20T11:26:39.262Z,20.61
2017-12-20T11:27:39.269Z,20.72
2017-12-20T11:28:39.591Z,20.71
2017-12-20T11:29:39.334Z,20.64
2017-12-20T11:30:39.409Z,20.71
2017-12-20T11:32:39.444Z,20.73
2017-12-20T11:33:39.479Z,20.71
2017-12-20T11:34:39.886Z,20.69
2017-12-20T11:35:39.668Z,20.75
2017-12-20T11:36:39.569Z,20.72
2017-12-20T11:37:39.609Z,20.71
2017-12-20T11:39:39.723Z,20.75
2017-12-20T11:40:39.692Z,20.64
2017-12-20T11:41:39.713Z,20.72
2017-12-20T11:42:39.760Z,20.72
2017-12-20T11:43:39.900Z,20.72
2017-12-20T11:44:39.812Z,20.63
2017-12-20T11:45:39.859Z,20.66
2017-12-20T11:46:39.890Z,20.73
2017-12-20T11:47:40.197Z,20.73
2017-12-20T11:48:39.990Z,20.71
2017-12-20T11:49:39.962Z,20.68
2017-12-20T11:50:40.005Z,20.69
2017-12-20T11:51:40.029Z,20.71
2017-12-20T11:52:40.076Z,20.68
2017-12-20T11:53:40.787Z,20.71
2017-12-20T11:54:40.119Z,20.69
2017-12-20T11:55:40.166Z,20.73
2017-12-20T11:56:40.200Z,20.71
2017-12-20T11:57:40.215Z,20.71
2017-12-20T11:58:40.241Z,20.71
2017-12-20T11:59:40.612Z,20.73
2017-12-20T12:00:40.348Z,20.81
2017-12-20T12:01:40.349Z,20.75
2017-12-20T12:02:40.459Z,20.68
2017-12-20T12:03:40.424Z,20.69
2017-12-20T12:04:40.454Z,20.71
2017-12-20T12:05:40.801Z,20.71
2017-12-20T12:06:40.760Z,20.72
2017-12-20T12:07:40.518Z,20.68
2017-12-20T12:08:40.571Z,20.71
2017-12-20T12:10:40.632Z,20.71
2017-12-20T12:11:40.667Z,20.72
2017-12-20T12:12:40.711Z,20.73
2017-12-20T12:13:41.026Z,20.64
2017-12-20T12:14:40.759Z,20.72
2017-12-20T12:15:40.883Z,20.63
2017-12-20T12:16:40.803Z,20.63
2017-12-20T12:17:40.837Z,20.66
2017-12-20T12:18:40.866Z,20.72
2017-12-20T12:19:40.905Z,20.60
2017-12-20T12:20:41.271Z,20.64
2017-12-20T12:21:40.970Z,20.73
2017-12-20T12:22:41.034Z,20.69
2017-12-20T12:23:41.048Z,20.61
2017-12-20T12:24:41.056Z,20.73
2017-12-20T12:25:41.098Z,20.61
2017-12-20T12:26:41.137Z,20.61
2017-12-20T12:27:41.441Z,20.72
2017-12-20T12:28:41.173Z,20.66
2017-12-20T12:29:41.235Z,20.64
2017-12-20T12:30:41.290Z,20.69
2017-12-20T12:31:41.267Z,20.69
2017-12-20T12:32:41.301Z,20.71
2017-12-20T12:33:41.606Z,20.64
2017-12-20T12:34:41.391Z,20.61
2017-12-20T12:35:41.544Z,20.63
2017-12-20T12:36:41.427Z,20.69
2017-12-20T12:37:41.465Z,20.73
2017-12-20T12:38:41.486Z,20.75
2017-12-20T12:39:41.532Z,20.73
2017-12-20T12:40:41.927Z,20.78
2017-12-20T12:41:41.598Z,20.64
2017-12-20T12:42:41.631Z,20.73
2017-12-20T12:43:41.710Z,20.73
2017-12-20T12:44:41.743Z,20.69
2017-12-20T12:45:41.721Z,20.64
2017-12-20T12:47:42.129Z,20.66
2017-12-20T12:48:41.816Z,20.73
2017-12-20T12:49:41.870Z,20.75
2017-12-20T12:50:41.859Z,20.76
2017-12-20T12:51:41.906Z,20.78
2017-12-20T12:52:41.964Z,20.71
2017-12-20T12:53:41.950Z,20.78
2017-12-20T12:54:43.380Z,20.64
2017-12-20T12:56:42.218Z,20.72
2017-12-20T12:57:42.098Z,20.79
2017-12-20T12:58:42.127Z,20.64
2017-12-20T12:59:42.179Z,20.68
2017-12-20T13:00:42.266Z,20.68
2017-12-20T13:01:42.525Z,20.72
2017-12-20T13:02:42.262Z,20.76
2017-12-20T13:03:42.261Z,20.64
2017-12-20T13:04:42.378Z,20.71
2017-12-20T13:05:42.330Z,20.66
2017-12-20T13:06:42.395Z,20.69
2017-12-20T13:07:42.587Z,20.75
2017-12-20T13:08:42.765Z,20.66
2017-12-20T13:09:42.490Z,20.69
2017-12-20T13:10:42.509Z,20.71
2017-12-20T13:11:42.593Z,20.64
2017-12-20T13:12:42.593Z,20.63
2017-12-20T13:13:42.597Z,20.75
2017-12-20T13:14:42.613Z,20.75
2017-12-20T13:15:42.982Z,20.75
2017-12-20T13:16:42.786Z,20.69
2017-12-20T13:17:42.722Z,20.68
2017-12-20T13:18:43.183Z,20.61
2017-12-20T13:19:42.786Z,20.73
2017-12-20T13:20:42.791Z,20.61
2017-12-20T13:21:43.163Z,20.64
2017-12-20T13:22:42.873Z,20.71
2017-12-20T13:23:42.909Z,20.68
2017-12-20T13:24:43.191Z,20.66
2017-12-20T13:25:42.982Z,20.69
2017-12-20T13:26:43.058Z,20.72
2017-12-20T13:27:43.310Z,20.71
2017-12-20T13:28:43.066Z,20.69
2017-12-20T13:29:43.104Z,20.73
2017-12-20T13:30:43.273Z,20.57
2017-12-20T13:31:43.175Z,20.72
2017-12-20T13:33:43.495Z,20.68
2017-12-20T13:34:43.235Z,20.68
2017-12-20T13:35:43.297Z,20.73
2017-12-20T13:36:43.318Z,20.73
2017-12-20T13:37:43.327Z,20.58
2017-12-20T13:38:43.349Z,20.73
2017-12-20T13:39:43.715Z,20.71
2017-12-20T13:40:43.425Z,20.68
2017-12-20T13:41:43.478Z,20.68
2017-12-20T13:42:43.491Z,20.64
2017-12-20T13:43:43.528Z,20.68